sensor_id;sensor_type;location;lat;lon;timestamp;pressure;altitude;pressure_sealevel;temperature;humidity
68793;BME280;55778;54.346;10.210;2023-06-22T00:01:19;101584.91;;;15.89;100.00
68793;BME280;55778;54.346;10.210;2023-06-22T00:03:45;101585.06;;;15.88;100.00
68793;BME280;55778;54.346;10.210;2023-06-22T00:06:10;101585.53;;;15.83;100.00
68793;BME280;55778;54.346;10.210;2023-06-22T00:08:35;101583.81;;;15.82;100.00
68793;BME280;55778;54.346;10.210;2023-06-22T00:11:01;101585.13;;;15.78;100.00
68793;BME280;55778;54.346;10.210;2023-06-22T00:13:26;101589.03;;;15.68;100.00
68793;BME280;55778;54.346;10.210;2023-06-22T00:15:52;101583.19;;;15.53;100.00
68793;BME280;55778;54.346;10.210;2023-06-22T00:18:17;101579.94;;;15.50;100.00
68793;BME280;55778;54.346;10.210;2023-06-22T00:20:42;101579.06;;;15.49;100.00
68793;BME280;55778;54.346;10.210;2023-06-22T00:23:08;101586.22;;;15.42;100.00
68793;BME280;55778;54.346;10.210;2023-06-22T00:25:37;101584.06;;;15.36;100.00
68793;BME280;55778;54.346;10.210;2023-06-22T00:28:05;101599.13;;;15.32;100.00
68793;BME280;55778;54.346;10.210;2023-06-22T00:30:32;101592.44;;;15.35;100.00
68793;BME280;55778;54.346;10.210;2023-06-22T00:32:58;101585.75;;;15.47;100.00
68793;BME280;55778;54.346;10.210;2023-06-22T00:35:24;101588.31;;;15.66;100.00
68793;BME280;55778;54.346;10.210;2023-06-22T00:37:54;101585.28;;;15.77;100.00
68793;BME280;55778;54.346;10.210;2023-06-22T00:40:25;101578.19;;;15.49;100.00
68793;BME280;55778;54.346;10.210;2023-06-22T00:42:51;101586.41;;;15.49;100.00
68793;BME280;55778;54.346;10.210;2023-06-22T00:45:16;101594.56;;;15.23;100.00
68793;BME280;55778;54.346;10.210;2023-06-22T00:47:41;101595.81;;;15.11;100.00
68793;BME280;55778;54.346;10.210;2023-06-22T00:50:10;101588.03;;;15.07;100.00
68793;BME280;55778;54.346;10.210;2023-06-22T00:52:38;101597.59;;;15.03;100.00
68793;BME280;55778;54.346;10.210;2023-06-22T00:55:08;101604.84;;;14.94;100.00
68793;BME280;55778;54.346;10.210;2023-06-22T00:57:34;101610.66;;;14.91;100.00
68793;BME280;55778;54.346;10.210;2023-06-22T01:00:03;101609.81;;;14.91;100.00
68793;BME280;55778;54.346;10.210;2023-06-22T01:02:31;101613.53;;;14.90;100.00
68793;BME280;55778;54.346;10.210;2023-06-22T01:04:57;101619.34;;;14.87;100.00
68793;BME280;55778;54.346;10.210;2023-06-22T01:07:35;101614.56;;;14.89;100.00
68793;BME280;55778;54.346;10.210;2023-06-22T01:12:40;101613.84;;;14.87;100.00
68793;BME280;55778;54.346;10.210;2023-06-22T01:15:14;101622.22;;;14.85;100.00
68793;BME280;55778;54.346;10.210;2023-06-22T01:17:41;101622.16;;;14.77;100.00
68793;BME280;55778;54.346;10.210;2023-06-22T01:20:09;101629.44;;;14.59;100.00
68793;BME280;55778;54.346;10.210;2023-06-22T01:22:49;101621.94;;;14.61;100.00
68793;BME280;55778;54.346;10.210;2023-06-22T01:25:21;101623.22;;;14.57;100.00
68793;BME280;55778;54.346;10.210;2023-06-22T01:28:03;101623.28;;;14.48;100.00
68793;BME280;55778;54.346;10.210;2023-06-22T01:30:30;101622.47;;;14.28;100.00
68793;BME280;55778;54.346;10.210;2023-06-22T01:32:57;101621.19;;;14.13;100.00
68793;BME280;55778;54.346;10.210;2023-06-22T01:35:24;101628.53;;;14.13;100.00
68793;BME280;55778;54.346;10.210;2023-06-22T01:37:50;101630.44;;;14.12;100.00
68793;BME280;55778;54.346;10.210;2023-06-22T01:40:16;101628.38;;;14.14;100.00
68793;BME280;55778;54.346;10.210;2023-06-22T01:42:42;101618.72;;;14.20;100.00
68793;BME280;55778;54.346;10.210;2023-06-22T01:45:09;101620.59;;;14.19;100.00
68793;BME280;55778;54.346;10.210;2023-06-22T01:47:36;101621.47;;;14.10;100.00
68793;BME280;55778;54.346;10.210;2023-06-22T01:50:01;101610.50;;;14.10;100.00
68793;BME280;55778;54.346;10.210;2023-06-22T01:52:27;101610.06;;;14.05;100.00
68793;BME280;55778;54.346;10.210;2023-06-22T01:54:52;101612.41;;;14.00;100.00
68793;BME280;55778;54.346;10.210;2023-06-22T01:57:18;101611.09;;;13.94;100.00
68793;BME280;55778;54.346;10.210;2023-06-22T02:00:03;101619.22;;;13.86;100.00
68793;BME280;55778;54.346;10.210;2023-06-22T02:02:35;101620.19;;;14.04;100.00
68793;BME280;55778;54.346;10.210;2023-06-22T02:05:06;101619.19;;;14.05;100.00
68793;BME280;55778;54.346;10.210;2023-06-22T02:07:35;101623.78;;;14.05;100.00
68793;BME280;55778;54.346;10.210;2023-06-22T02:10:04;101617.31;;;13.96;100.00
68793;BME280;55778;54.346;10.210;2023-06-22T02:12:32;101622.25;;;13.93;100.00
68793;BME280;55778;54.346;10.210;2023-06-22T02:14:59;101620.06;;;13.96;100.00
68793;BME280;55778;54.346;10.210;2023-06-22T02:17:26;101628.00;;;13.99;100.00
68793;BME280;55778;54.346;10.210;2023-06-22T02:19:51;101634.19;;;14.01;100.00
68793;BME280;55778;54.346;10.210;2023-06-22T02:22:17;101628.56;;;14.03;100.00
68793;BME280;55778;54.346;10.210;2023-06-22T02:24:42;101633.47;;;13.99;100.00
68793;BME280;55778;54.346;10.210;2023-06-22T02:27:08;101638.53;;;13.85;100.00
68793;BME280;55778;54.346;10.210;2023-06-22T02:29:33;101633.94;;;13.76;100.00
68793;BME280;55778;54.346;10.210;2023-06-22T02:31:59;101627.44;;;13.77;100.00
68793;BME280;55778;54.346;10.210;2023-06-22T02:34:25;101635.66;;;13.77;100.00
68793;BME280;55778;54.346;10.210;2023-06-22T02:36:51;101632.06;;;13.76;100.00
68793;BME280;55778;54.346;10.210;2023-06-22T02:39:25;101620.81;;;13.70;100.00
68793;BME280;55778;54.346;10.210;2023-06-22T02:41:54;101622.84;;;13.58;100.00
68793;BME280;55778;54.346;10.210;2023-06-22T02:44:20;101632.66;;;13.51;100.00
68793;BME280;55778;54.346;10.210;2023-06-22T02:46:47;101629.75;;;13.53;100.00
68793;BME280;55778;54.346;10.210;2023-06-22T02:49:12;101631.47;;;13.54;100.00
68793;BME280;55778;54.346;10.210;2023-06-22T02:51:42;101630.78;;;13.61;100.00
68793;BME280;55778;54.346;10.210;2023-06-22T02:54:07;101639.81;;;13.62;100.00
68793;BME280;55778;54.346;10.210;2023-06-22T02:56:33;101631.63;;;13.71;100.00
68793;BME280;55778;54.346;10.210;2023-06-22T02:58:58;101629.31;;;13.67;100.00
68793;BME280;55778;54.346;10.210;2023-06-22T03:01:27;101630.03;;;13.69;100.00
68793;BME280;55778;54.346;10.210;2023-06-22T03:03:53;101624.13;;;13.73;100.00
68793;BME280;55778;54.346;10.210;2023-06-22T03:06:20;101623.84;;;13.76;100.00
68793;BME280;55778;54.346;10.210;2023-06-22T03:08:51;101628.31;;;13.77;100.00
68793;BME280;55778;54.346;10.210;2023-06-22T03:11:16;101628.00;;;13.80;100.00
68793;BME280;55778;54.346;10.210;2023-06-22T03:13:43;101630.75;;;13.80;100.00
68793;BME280;55778;54.346;10.210;2023-06-22T03:16:08;101629.31;;;13.76;100.00
68793;BME280;55778;54.346;10.210;2023-06-22T03:18:34;101630.59;;;13.72;100.00
68793;BME280;55778;54.346;10.210;2023-06-22T03:20:59;101633.94;;;13.76;100.00
68793;BME280;55778;54.346;10.210;2023-06-22T03:23:27;101636.22;;;13.80;100.00
68793;BME280;55778;54.346;10.210;2023-06-22T03:25:52;101626.56;;;13.86;100.00
68793;BME280;55778;54.346;10.210;2023-06-22T03:28:21;101629.75;;;13.91;100.00
68793;BME280;55778;54.346;10.210;2023-06-22T03:30:46;101632.00;;;14.05;100.00
68793;BME280;55778;54.346;10.210;2023-06-22T03:33:12;101627.44;;;13.86;100.00
68793;BME280;55778;54.346;10.210;2023-06-22T03:35:37;101627.16;;;13.89;100.00
68793;BME280;55778;54.346;10.210;2023-06-22T03:38:03;101624.13;;;13.92;100.00
68793;BME280;55778;54.346;10.210;2023-06-22T03:40:29;101633.34;;;13.91;100.00
68793;BME280;55778;54.346;10.210;2023-06-22T03:42:55;101626.56;;;13.95;100.00
68793;BME280;55778;54.346;10.210;2023-06-22T03:45:20;101631.75;;;13.98;100.00
68793;BME280;55778;54.346;10.210;2023-06-22T03:47:45;101631.31;;;14.03;100.00
68793;BME280;55778;54.346;10.210;2023-06-22T03:50:11;101630.53;;;14.20;100.00
68793;BME280;55778;54.346;10.210;2023-06-22T03:52:36;101633.84;;;14.33;100.00
68793;BME280;55778;54.346;10.210;2023-06-22T03:55:02;101645.97;;;14.40;100.00
68793;BME280;55778;54.346;10.210;2023-06-22T03:57:27;101642.34;;;14.40;100.00
68793;BME280;55778;54.346;10.210;2023-06-22T03:59:56;101640.72;;;14.56;100.00
68793;BME280;55778;54.346;10.210;2023-06-22T04:02:21;101640.78;;;14.74;100.00
68793;BME280;55778;54.346;10.210;2023-06-22T04:04:47;101644.19;;;14.85;100.00
68793;BME280;55778;54.346;10.210;2023-06-22T04:07:12;101654.31;;;14.85;100.00
68793;BME280;55778;54.346;10.210;2023-06-22T04:09:38;101653.47;;;14.75;100.00
68793;BME280;55778;54.346;10.210;2023-06-22T04:12:03;101659.22;;;14.91;100.00
68793;BME280;55778;54.346;10.210;2023-06-22T04:14:29;101669.31;;;14.90;100.00
68793;BME280;55778;54.346;10.210;2023-06-22T04:16:54;101662.94;;;14.90;100.00
68793;BME280;55778;54.346;10.210;2023-06-22T04:19:19;101671.91;;;14.92;100.00
68793;BME280;55778;54.346;10.210;2023-06-22T04:21:45;101673.00;;;14.99;100.00
68793;BME280;55778;54.346;10.210;2023-06-22T04:24:12;101668.09;;;15.02;100.00
68793;BME280;55778;54.346;10.210;2023-06-22T04:26:37;101660.94;;;15.19;100.00
68793;BME280;55778;54.346;10.210;2023-06-22T04:29:04;101654.66;;;15.26;100.00
68793;BME280;55778;54.346;10.210;2023-06-22T04:31:31;101656.81;;;15.32;100.00
68793;BME280;55778;54.346;10.210;2023-06-22T04:33:57;101658.22;;;15.36;100.00
68793;BME280;55778;54.346;10.210;2023-06-22T04:36:35;101662.97;;;15.79;100.00
68793;BME280;55778;54.346;10.210;2023-06-22T04:39:12;101642.06;;;15.86;100.00
68793;BME280;55778;54.346;10.210;2023-06-22T04:41:40;101645.47;;;15.98;100.00
68793;BME280;55778;54.346;10.210;2023-06-22T04:44:10;101640.91;;;16.14;100.00
68793;BME280;55778;54.346;10.210;2023-06-22T04:46:36;101637.22;;;16.23;100.00
68793;BME280;55778;54.346;10.210;2023-06-22T04:49:06;101631.78;;;16.31;100.00
68793;BME280;55778;54.346;10.210;2023-06-22T04:51:39;101640.13;;;16.22;100.00
68793;BME280;55778;54.346;10.210;2023-06-22T04:54:05;101646.25;;;16.16;100.00
68793;BME280;55778;54.346;10.210;2023-06-22T04:56:32;101646.59;;;16.38;100.00
68793;BME280;55778;54.346;10.210;2023-06-22T04:58:57;101643.84;;;16.38;100.00
68793;BME280;55778;54.346;10.210;2023-06-22T05:01:23;101638.63;;;16.45;100.00
68793;BME280;55778;54.346;10.210;2023-06-22T05:03:49;101646.63;;;16.64;100.00
68793;BME280;55778;54.346;10.210;2023-06-22T05:06:15;101637.88;;;16.68;100.00
68793;BME280;55778;54.346;10.210;2023-06-22T05:08:40;101641.38;;;16.78;100.00
68793;BME280;55778;54.346;10.210;2023-06-22T05:11:06;101642.97;;;16.81;100.00
68793;BME280;55778;54.346;10.210;2023-06-22T05:13:32;101638.78;;;16.77;100.00
68793;BME280;55778;54.346;10.210;2023-06-22T05:15:57;101635.19;;;16.76;100.00
68793;BME280;55778;54.346;10.210;2023-06-22T05:18:27;101635.44;;;16.99;100.00
68793;BME280;55778;54.346;10.210;2023-06-22T05:20:54;101640.94;;;16.99;100.00
68793;BME280;55778;54.346;10.210;2023-06-22T05:23:20;101639.41;;;16.96;100.00
68793;BME280;55778;54.346;10.210;2023-06-22T05:25:45;101644.09;;;17.04;100.00
68793;BME280;55778;54.346;10.210;2023-06-22T05:28:10;101638.44;;;17.13;100.00
68793;BME280;55778;54.346;10.210;2023-06-22T05:30:37;101642.41;;;17.19;100.00
68793;BME280;55778;54.346;10.210;2023-06-22T05:33:02;101647.09;;;17.26;100.00
68793;BME280;55778;54.346;10.210;2023-06-22T05:35:27;101653.06;;;17.47;100.00
68793;BME280;55778;54.346;10.210;2023-06-22T05:37:53;101646.53;;;17.56;100.00
68793;BME280;55778;54.346;10.210;2023-06-22T05:40:19;101648.75;;;17.61;100.00
68793;BME280;55778;54.346;10.210;2023-06-22T05:42:44;101636.00;;;17.76;100.00
68793;BME280;55778;54.346;10.210;2023-06-22T05:45:09;101635.66;;;17.63;99.68
68793;BME280;55778;54.346;10.210;2023-06-22T05:47:35;101635.00;;;17.85;99.11
68793;BME280;55778;54.346;10.210;2023-06-22T05:50:00;101634.81;;;18.03;94.90
68793;BME280;55778;54.346;10.210;2023-06-22T05:52:26;101640.69;;;18.16;93.72
68793;BME280;55778;54.346;10.210;2023-06-22T05:54:51;101639.66;;;18.09;93.67
68793;BME280;55778;54.346;10.210;2023-06-22T05:57:16;101647.56;;;18.36;91.91
68793;BME280;55778;54.346;10.210;2023-06-22T05:59:42;101648.44;;;18.04;93.93
68793;BME280;55778;54.346;10.210;2023-06-22T06:02:07;101650.34;;;18.04;94.81
68793;BME280;55778;54.346;10.210;2023-06-22T06:04:32;101655.69;;;18.05;94.32
68793;BME280;55778;54.346;10.210;2023-06-22T06:06:58;101656.38;;;18.15;91.05
68793;BME280;55778;54.346;10.210;2023-06-22T06:09:23;101658.81;;;18.42;90.48
68793;BME280;55778;54.346;10.210;2023-06-22T06:11:48;101659.13;;;18.55;90.25
68793;BME280;55778;54.346;10.210;2023-06-22T06:14:14;101658.94;;;18.65;89.72
68793;BME280;55778;54.346;10.210;2023-06-22T06:16:39;101652.16;;;18.75;88.36
68793;BME280;55778;54.346;10.210;2023-06-22T06:19:04;101654.22;;;18.81;88.89
68793;BME280;55778;54.346;10.210;2023-06-22T06:21:30;101648.84;;;18.88;86.33
68793;BME280;55778;54.346;10.210;2023-06-22T06:23:55;101645.50;;;18.46;86.32
68793;BME280;55778;54.346;10.210;2023-06-22T06:26:21;101642.00;;;18.76;86.32
68793;BME280;55778;54.346;10.210;2023-06-22T06:28:56;101629.81;;;19.01;84.96
68793;BME280;55778;54.346;10.210;2023-06-22T06:31:21;101626.91;;;18.94;86.15
68793;BME280;55778;54.346;10.210;2023-06-22T06:33:47;101633.63;;;19.00;84.68
68793;BME280;55778;54.346;10.210;2023-06-22T06:36:12;101628.66;;;19.26;85.53
68793;BME280;55778;54.346;10.210;2023-06-22T06:38:37;101625.75;;;19.58;80.99
68793;BME280;55778;54.346;10.210;2023-06-22T06:41:03;101625.44;;;19.75;77.45
68793;BME280;55778;54.346;10.210;2023-06-22T06:43:28;101632.44;;;19.86;77.78
68793;BME280;55778;54.346;10.210;2023-06-22T06:45:53;101629.59;;;19.94;75.22
68793;BME280;55778;54.346;10.210;2023-06-22T06:48:19;101623.31;;;20.23;73.48
68793;BME280;55778;54.346;10.210;2023-06-22T06:50:44;101627.66;;;20.40;72.16
68793;BME280;55778;54.346;10.210;2023-06-22T06:53:10;101637.09;;;20.31;71.28
68793;BME280;55778;54.346;10.210;2023-06-22T06:55:35;101633.59;;;20.37;71.81
68793;BME280;55778;54.346;10.210;2023-06-22T06:58:02;101630.84;;;20.51;70.81
68793;BME280;55778;54.346;10.210;2023-06-22T07:00:29;101634.94;;;20.70;70.72
68793;BME280;55778;54.346;10.210;2023-06-22T07:02:54;101631.91;;;20.94;66.17
68793;BME280;55778;54.346;10.210;2023-06-22T07:05:20;101628.38;;;21.14;66.42
68793;BME280;55778;54.346;10.210;2023-06-22T07:07:46;101630.81;;;21.38;66.32
68793;BME280;55778;54.346;10.210;2023-06-22T07:10:11;101632.03;;;21.50;66.65
68793;BME280;55778;54.346;10.210;2023-06-22T07:12:38;101622.25;;;21.90;62.82
68793;BME280;55778;54.346;10.210;2023-06-22T07:15:05;101628.56;;;22.26;62.01
68793;BME280;55778;54.346;10.210;2023-06-22T07:17:33;101624.78;;;22.34;60.56
68793;BME280;55778;54.346;10.210;2023-06-22T07:19:58;101623.31;;;22.59;59.33
68793;BME280;55778;54.346;10.210;2023-06-22T07:22:24;101622.66;;;22.91;58.12
68793;BME280;55778;54.346;10.210;2023-06-22T07:24:49;101623.78;;;23.03;57.79
68793;BME280;55778;54.346;10.210;2023-06-22T07:27:15;101626.00;;;23.14;57.19
68793;BME280;55778;54.346;10.210;2023-06-22T07:29:43;101622.50;;;23.46;54.40
68793;BME280;55778;54.346;10.210;2023-06-22T07:32:09;101625.31;;;23.12;55.20
68793;BME280;55778;54.346;10.210;2023-06-22T07:34:34;101630.00;;;23.05;55.09
68793;BME280;55778;54.346;10.210;2023-06-22T07:36:59;101627.88;;;23.47;52.46
68793;BME280;55778;54.346;10.210;2023-06-22T07:39:25;101620.03;;;23.17;56.53
68793;BME280;55778;54.346;10.210;2023-06-22T07:41:51;101623.78;;;23.03;53.97
68793;BME280;55778;54.346;10.210;2023-06-22T07:44:17;101625.75;;;23.09;55.37
68793;BME280;55778;54.346;10.210;2023-06-22T07:46:42;101617.03;;;23.79;52.80
68793;BME280;55778;54.346;10.210;2023-06-22T07:49:08;101627.19;;;24.19;51.97
68793;BME280;55778;54.346;10.210;2023-06-22T07:51:34;101625.84;;;23.82;50.71
68793;BME280;55778;54.346;10.210;2023-06-22T07:53:59;101621.38;;;23.94;50.79
68793;BME280;55778;54.346;10.210;2023-06-22T07:56:24;101620.56;;;24.13;49.34
68793;BME280;55778;54.346;10.210;2023-06-22T07:58:50;101622.06;;;24.09;49.11
68793;BME280;55778;54.346;10.210;2023-06-22T08:01:16;101614.69;;;23.82;50.36
68793;BME280;55778;54.346;10.210;2023-06-22T08:03:42;101615.81;;;24.33;50.20
68793;BME280;55778;54.346;10.210;2023-06-22T08:06:08;101618.63;;;24.14;51.11
68793;BME280;55778;54.346;10.210;2023-06-22T08:08:35;101619.88;;;24.63;49.53
68793;BME280;55778;54.346;10.210;2023-06-22T08:11:00;101630.59;;;24.86;49.12
68793;BME280;55778;54.346;10.210;2023-06-22T08:13:25;101631.47;;;24.41;48.02
68793;BME280;55778;54.346;10.210;2023-06-22T08:15:51;101620.75;;;24.77;47.53
68793;BME280;55778;54.346;10.210;2023-06-22T08:18:16;101621.22;;;25.38;47.56
68793;BME280;55778;54.346;10.210;2023-06-22T08:20:42;101624.06;;;25.18;48.51
68793;BME280;55778;54.346;10.210;2023-06-22T08:23:07;101623.50;;;25.60;47.26
68793;BME280;55778;54.346;10.210;2023-06-22T08:25:34;101621.53;;;26.05;48.30
68793;BME280;55778;54.346;10.210;2023-06-22T08:28:00;101619.69;;;25.48;48.41
68793;BME280;55778;54.346;10.210;2023-06-22T08:30:25;101624.75;;;26.02;46.94
68793;BME280;55778;54.346;10.210;2023-06-22T08:32:51;101620.59;;;25.35;47.94
68793;BME280;55778;54.346;10.210;2023-06-22T08:35:16;101634.22;;;25.63;46.86
68793;BME280;55778;54.346;10.210;2023-06-22T08:37:42;101620.91;;;25.96;47.06
68793;BME280;55778;54.346;10.210;2023-06-22T08:40:09;101628.16;;;25.22;47.72
68793;BME280;55778;54.346;10.210;2023-06-22T08:42:35;101630.72;;;25.23;48.36
68793;BME280;55778;54.346;10.210;2023-06-22T08:45:01;101626.06;;;24.91;48.69
68793;BME280;55778;54.346;10.210;2023-06-22T08:47:27;101634.47;;;24.26;50.77
68793;BME280;55778;54.346;10.210;2023-06-22T08:49:53;101622.91;;;24.88;49.22
68793;BME280;55778;54.346;10.210;2023-06-22T08:52:19;101615.50;;;25.13;51.38
68793;BME280;55778;54.346;10.210;2023-06-22T08:54:45;101612.53;;;25.08;48.57
68793;BME280;55778;54.346;10.210;2023-06-22T08:57:10;101607.03;;;25.46;47.20
68793;BME280;55778;54.346;10.210;2023-06-22T08:59:36;101614.13;;;25.42;48.26
68793;BME280;55778;54.346;10.210;2023-06-22T09:02:01;101614.66;;;25.06;48.87
68793;BME280;55778;54.346;10.210;2023-06-22T09:04:27;101609.38;;;24.85;49.62
68793;BME280;55778;54.346;10.210;2023-06-22T09:06:52;101608.56;;;25.28;47.07
68793;BME280;55778;54.346;10.210;2023-06-22T09:09:18;101612.53;;;25.01;48.56
68793;BME280;55778;54.346;10.210;2023-06-22T09:11:44;101613.78;;;25.12;48.12
68793;BME280;55778;54.346;10.210;2023-06-22T09:14:10;101607.78;;;26.03;47.12
68793;BME280;55778;54.346;10.210;2023-06-22T09:16:36;101595.97;;;26.50;46.96
68793;BME280;55778;54.346;10.210;2023-06-22T09:19:02;101596.44;;;26.90;43.47
68793;BME280;55778;54.346;10.210;2023-06-22T09:21:27;101589.31;;;27.30;42.21
68793;BME280;55778;54.346;10.210;2023-06-22T09:23:53;101588.34;;;27.36;41.85
68793;BME280;55778;54.346;10.210;2023-06-22T09:26:19;101592.09;;;26.76;44.22
68793;BME280;55778;54.346;10.210;2023-06-22T09:28:44;101589.91;;;26.78;44.06
68793;BME280;55778;54.346;10.210;2023-06-22T09:31:09;101592.09;;;26.94;44.47
68793;BME280;55778;54.346;10.210;2023-06-22T09:33:36;101580.88;;;27.48;42.23
68793;BME280;55778;54.346;10.210;2023-06-22T09:36:01;101575.63;;;27.99;41.28
68793;BME280;55778;54.346;10.210;2023-06-22T09:38:27;101581.88;;;28.36;39.98
68793;BME280;55778;54.346;10.210;2023-06-22T09:40:52;101575.88;;;28.09;43.35
68793;BME280;55778;54.346;10.210;2023-06-22T09:43:17;101571.72;;;28.00;44.08
68793;BME280;55778;54.346;10.210;2023-06-22T09:45:43;101583.25;;;27.63;44.44
68793;BME280;55778;54.346;10.210;2023-06-22T09:48:08;101595.47;;;26.35;46.74
68793;BME280;55778;54.346;10.210;2023-06-22T09:50:35;101586.81;;;26.86;46.31
68793;BME280;55778;54.346;10.210;2023-06-22T09:53:02;101578.47;;;27.81;43.75
68793;BME280;55778;54.346;10.210;2023-06-22T09:55:27;101584.56;;;28.31;41.88
68793;BME280;55778;54.346;10.210;2023-06-22T09:57:53;101583.22;;;28.22;42.86
68793;BME280;55778;54.346;10.210;2023-06-22T10:00:20;101584.72;;;27.36;43.24
68793;BME280;55778;54.346;10.210;2023-06-22T10:02:47;101584.44;;;28.14;41.85
68793;BME280;55778;54.346;10.210;2023-06-22T10:05:12;101576.59;;;28.57;40.04
68793;BME280;55778;54.346;10.210;2023-06-22T10:07:37;101575.47;;;28.58;41.03
68793;BME280;55778;54.346;10.210;2023-06-22T10:10:08;101577.72;;;27.74;41.29
68793;BME280;55778;54.346;10.210;2023-06-22T10:12:34;101569.31;;;28.27;41.72
68793;BME280;55778;54.346;10.210;2023-06-22T10:15:00;101568.53;;;28.49;41.19
68793;BME280;55778;54.346;10.210;2023-06-22T10:17:25;101571.94;;;28.63;42.35
68793;BME280;55778;54.346;10.210;2023-06-22T10:19:50;101571.81;;;29.32;40.52
68793;BME280;55778;54.346;10.210;2023-06-22T10:22:16;101565.28;;;29.83;39.10
68793;BME280;55778;54.346;10.210;2023-06-22T10:24:41;101555.69;;;29.39;39.94
68793;BME280;55778;54.346;10.210;2023-06-22T10:27:12;101557.47;;;29.57;37.53
68793;BME280;55778;54.346;10.210;2023-06-22T10:29:39;101553.97;;;29.38;38.29
68793;BME280;55778;54.346;10.210;2023-06-22T10:32:04;101553.97;;;29.38;38.71
68793;BME280;55778;54.346;10.210;2023-06-22T10:34:30;101554.78;;;28.99;39.49
68793;BME280;55778;54.346;10.210;2023-06-22T10:36:55;101562.00;;;28.14;43.45
68793;BME280;55778;54.346;10.210;2023-06-22T10:42:42;101543.88;;;29.65;38.61
68793;BME280;55778;54.346;10.210;2023-06-22T10:45:08;101551.09;;;29.33;39.47
68793;BME280;55778;54.346;10.210;2023-06-22T10:47:34;101551.34;;;29.32;38.97
68793;BME280;55778;54.346;10.210;2023-06-22T10:49:59;101538.06;;;29.16;40.24
68793;BME280;55778;54.346;10.210;2023-06-22T10:52:24;101536.38;;;29.15;40.23
68793;BME280;55778;54.346;10.210;2023-06-22T10:54:50;101538.63;;;29.85;38.94
68793;BME280;55778;54.346;10.210;2023-06-22T10:57:15;101538.81;;;29.39;39.71
68793;BME280;55778;54.346;10.210;2023-06-22T10:59:41;101534.69;;;29.42;39.63
68793;BME280;55778;54.346;10.210;2023-06-22T11:02:06;101523.63;;;29.24;39.48
68793;BME280;55778;54.346;10.210;2023-06-22T11:04:31;101523.63;;;28.61;41.21
68793;BME280;55778;54.346;10.210;2023-06-22T11:06:57;101531.16;;;27.73;42.65
68793;BME280;55778;54.346;10.210;2023-06-22T11:09:22;101529.69;;;27.11;44.69
68793;BME280;55778;54.346;10.210;2023-06-22T11:11:50;101525.59;;;28.49;41.15
68793;BME280;55778;54.346;10.210;2023-06-22T11:14:16;101523.06;;;28.98;39.57
68793;BME280;55778;54.346;10.210;2023-06-22T11:16:41;101515.31;;;29.57;37.81
68793;BME280;55778;54.346;10.210;2023-06-22T11:19:07;101506.63;;;29.58;38.35
68793;BME280;55778;54.346;10.210;2023-06-22T11:21:32;101514.97;;;29.53;38.61
68793;BME280;55778;54.346;10.210;2023-06-22T11:23:59;101524.63;;;29.18;38.44
68793;BME280;55778;54.346;10.210;2023-06-22T11:26:25;101530.53;;;28.01;40.87
68793;BME280;55778;54.346;10.210;2023-06-22T11:28:52;101528.22;;;26.91;42.72
68793;BME280;55778;54.346;10.210;2023-06-22T11:31:18;101519.66;;;27.52;41.99
68793;BME280;55778;54.346;10.210;2023-06-22T11:33:43;101518.50;;;28.23;41.31
68793;BME280;55778;54.346;10.210;2023-06-22T11:36:11;101515.38;;;27.79;41.58
68793;BME280;55778;54.346;10.210;2023-06-22T11:38:36;101520.44;;;27.70;42.53
68793;BME280;55778;54.346;10.210;2023-06-22T11:41:05;101506.75;;;27.92;40.83
68793;BME280;55778;54.346;10.210;2023-06-22T11:43:30;101515.94;;;28.79;39.22
68793;BME280;55778;54.346;10.210;2023-06-22T11:45:56;101511.78;;;28.70;40.14
68793;BME280;55778;54.346;10.210;2023-06-22T11:48:26;101510.91;;;29.33;38.18
68793;BME280;55778;54.346;10.210;2023-06-22T11:50:51;101516.78;;;28.68;40.67
68793;BME280;55778;54.346;10.210;2023-06-22T11:53:17;101514.06;;;28.04;40.04
68793;BME280;55778;54.346;10.210;2023-06-22T11:55:43;101516.25;;;27.91;40.77
68793;BME280;55778;54.346;10.210;2023-06-22T11:58:09;101514.75;;;27.36;42.50
68793;BME280;55778;54.346;10.210;2023-06-22T12:00:34;101510.44;;;28.38;40.81
68793;BME280;55778;54.346;10.210;2023-06-22T12:02:59;101504.72;;;28.33;40.56
68793;BME280;55778;54.346;10.210;2023-06-22T12:05:25;101503.78;;;29.14;38.33
68793;BME280;55778;54.346;10.210;2023-06-22T12:07:53;101490.13;;;29.62;37.09
68793;BME280;55778;54.346;10.210;2023-06-22T12:10:18;101501.25;;;29.85;36.26
68793;BME280;55778;54.346;10.210;2023-06-22T12:12:44;101492.63;;;29.75;36.49
68793;BME280;55778;54.346;10.210;2023-06-22T12:15:10;101493.03;;;28.99;37.56
68793;BME280;55778;54.346;10.210;2023-06-22T12:17:35;101492.84;;;29.57;36.48
68793;BME280;55778;54.346;10.210;2023-06-22T12:20:01;101491.84;;;28.95;37.50
68793;BME280;55778;54.346;10.210;2023-06-22T12:22:31;101480.75;;;29.56;37.28
68793;BME280;55778;54.346;10.210;2023-06-22T12:24:56;101476.81;;;29.69;37.05
68793;BME280;55778;54.346;10.210;2023-06-22T12:27:21;101478.41;;;29.98;35.58
68793;BME280;55778;54.346;10.210;2023-06-22T12:29:47;101474.84;;;29.86;36.11
68793;BME280;55778;54.346;10.210;2023-06-22T12:32:13;101465.03;;;29.27;36.21
68793;BME280;55778;54.346;10.210;2023-06-22T12:34:39;101462.91;;;27.45;39.89
68793;BME280;55778;54.346;10.210;2023-06-22T12:37:05;101461.47;;;28.92;36.64